Time;durP1;ratioP1;P1;durP2;ratioP2;P2;SDS_P1;SDS_P2;PMS_P1;PMS_P2;Temp;Humidity;BMP_temperature;BMP_pressure;BME280_temperature;BME280_humidity;BME280_pressure;Samples;Min_cycle;Max_cycle;Signal;HPM_P1;HPM_P2
2022/09/10 00:12:34;;;;;;;;;;;;;;;18.36;100.00;99695.22;5258546;23;1665;-63
2022/09/10 00:15:01;;;;;;;;;;;;;;;18.40;100.00;99697.09;5013835;28;897;-62
2022/09/10 00:17:28;;;;;;;;;;;;;;;18.44;100.00;99692.16;5013676;28;814;-63
2022/09/10 00:19:55;;;;;;;;;;;;;;;18.48;100.00;99685.16;4996034;28;1574;-62
2022/09/10 00:22:22;;;;;;;;;;;;;;;18.49;100.00;99683.16;5013586;28;909;-62
2022/09/10 00:24:49;;;;;;;;;;;;;;;18.48;100.00;99684.41;5013319;28;1907;-62
2022/09/10 00:27:16;;;;;;;;;;;;;;;18.47;100.00;99683.59;5013436;28;886;-62
2022/09/10 00:29:43;;;;;;;;;;;;;;;18.48;100.00;99690.00;5013424;28;811;-62
2022/09/10 00:32:09;;;;;;;;;;;;;;;18.46;100.00;99682.06;5013321;28;890;-62
2022/09/10 00:34:36;;;;;;;;;;;;;;;18.46;100.00;99676.44;5013348;28;885;-62
2022/09/10 00:37:04;;;;;;;;;;;;;;;18.47;100.00;99677.22;5013321;28;882;-62
2022/09/10 00:39:32;;;;;;;;;;;;;;;18.42;100.00;99675.03;4995593;28;1363;-62
2022/09/10 00:42:00;;;;;;;;;;;;;;;18.40;100.00;99669.91;5013042;28;883;-62
2022/09/10 00:44:39;;;;;;;;;;;;;;;18.35;100.00;99671.28;4995489;28;1886;-63
2022/09/10 00:47:26;;;;;;;;;;;;;;;18.33;100.00;99664.59;4995432;28;1214;-63
2022/09/10 00:49:57;;;;;;;;;;;;;;;18.30;100.00;99668.28;4994983;28;1297;-63
2022/09/10 00:52:24;;;;;;;;;;;;;;;18.26;100.00;99662.81;5013034;28;882;-63
2022/09/10 00:54:51;;;;;;;;;;;;;;;18.22;100.00;99667.00;5012942;28;882;-63
2022/09/10 00:57:20;;;;;;;;;;;;;;;18.17;100.00;99666.34;4995204;28;1348;-63
2022/09/10 00:59:51;;;;;;;;;;;;;;;18.13;100.00;99656.53;5012884;28;908;-63
2022/09/10 01:02:18;;;;;;;;;;;;;;;18.09;100.00;99659.50;4995245;28;1386;-63
2022/09/10 01:04:45;;;;;;;;;;;;;;;18.06;100.00;99662.41;5012675;28;1886;-63
2022/09/10 01:07:12;;;;;;;;;;;;;;;18.02;100.00;99659.75;5013027;28;873;-63
2022/09/10 01:09:39;;;;;;;;;;;;;;;18.01;100.00;99655.41;5012692;28;814;-63
2022/09/10 01:12:24;;;;;;;;;;;;;;;18.01;100.00;99657.41;5012452;28;1367;-63
2022/09/10 01:15:09;;;;;;;;;;;;;;;17.99;100.00;99657.06;5012619;28;802;-63
2022/09/10 01:17:43;;;;;;;;;;;;;;;17.94;100.00;99645.28;5012565;28;874;-63
2022/09/10 01:20:13;;;;;;;;;;;;;;;17.91;100.00;99651.00;5012539;28;913;-63
2022/09/10 01:22:41;;;;;;;;;;;;;;;17.93;100.00;99652.09;5012503;28;988;-63
2022/09/10 01:25:23;;;;;;;;;;;;;;;17.92;100.00;99649.75;5012403;28;1906;-63
2022/09/10 01:27:56;;;;;;;;;;;;;;;17.96;100.00;99639.22;5012355;28;862;-63
2022/09/10 01:30:29;;;;;;;;;;;;;;;18.01;100.00;99644.22;4994739;28;1409;-63
2022/09/10 01:33:19;;;;;;;;;;;;;;;18.02;100.00;99636.59;5012335;28;893;-63
2022/09/10 01:35:56;;;;;;;;;;;;;;;17.99;100.00;99629.91;4994096;28;1395;-63
2022/09/10 01:38:27;;;;;;;;;;;;;;;17.96;100.00;99633.63;4994625;28;1259;-63
2022/09/10 01:40:54;;;;;;;;;;;;;;;18.01;100.00;99629.44;5012025;28;929;-63
2022/09/10 01:43:22;;;;;;;;;;;;;;;18.05;100.00;99627.28;5012329;28;1889;-63
2022/09/10 01:45:51;;;;;;;;;;;;;;;18.08;100.00;99629.19;5012400;28;835;-63
2022/09/10 01:48:24;;;;;;;;;;;;;;;18.10;100.00;99621.88;5012248;28;890;-63
2022/09/10 01:51:03;;;;;;;;;;;;;;;18.11;100.00;99623.44;5012014;28;874;-63
2022/09/10 01:53:59;;;;;;;;;;;;;;;18.10;100.00;99626.72;5011932;28;1193;-64
2022/09/10 01:56:36;;;;;;;;;;;;;;;18.06;100.00;99617.69;4996838;28;1321;-63
2022/09/10 01:59:10;;;;;;;;;;;;;;;17.96;100.00;99611.25;5011922;28;858;-63
2022/09/10 02:01:49;;;;;;;;;;;;;;;17.86;100.00;99620.81;5012006;28;886;-63
2022/09/10 02:04:17;;;;;;;;;;;;;;;17.76;100.00;99615.16;5011825;28;1955;-63
2022/09/10 02:06:47;;;;;;;;;;;;;;;17.78;100.00;99623.09;5012015;28;841;-64
2022/09/10 02:09:16;;;;;;;;;;;;;;;17.84;100.00;99620.53;5011716;28;877;-63
2022/09/10 02:11:44;;;;;;;;;;;;;;;17.87;100.00;99617.56;5011837;28;1227;-64
2022/09/10 02:14:13;;;;;;;;;;;;;;;17.89;100.00;99612.31;4994407;28;1359;-63
2022/09/10 02:16:40;;;;;;;;;;;;;;;17.91;100.00;99603.47;5011858;28;870;-64
2022/09/10 02:19:08;;;;;;;;;;;;;;;17.95;100.00;99609.69;5011708;28;945;-64
2022/09/10 02:21:36;;;;;;;;;;;;;;;17.97;100.00;99604.44;5011765;28;826;-64
2022/09/10 02:24:08;;;;;;;;;;;;;;;17.98;100.00;99613.59;5011621;28;1922;-64
2022/09/10 02:26:40;;;;;;;;;;;;;;;18.08;100.00;99624.38;5011688;28;877;-63
2022/09/10 02:29:08;;;;;;;;;;;;;;;18.14;100.00;99630.16;4994096;28;1279;-64
2022/09/10 02:31:35;;;;;;;;;;;;;;;18.19;100.00;99628.78;5011590;28;1066;-64
2022/09/10 02:34:02;;;;;;;;;;;;;;;18.21;100.00;99624.28;5011587;28;830;-64
2022/09/10 02:36:30;;;;;;;;;;;;;;;18.17;100.00;99620.84;5011578;28;886;-64
2022/09/10 02:39:02;;;;;;;;;;;;;;;18.15;100.00;99617.72;5011403;28;1105;-64
2022/09/10 02:41:32;;;;;;;;;;;;;;;18.09;100.00;99620.34;5011819;28;882;-64
2022/09/10 02:44:04;;;;;;;;;;;;;;;18.02;100.00;99614.25;4994060;28;1957;-64
2022/09/10 02:46:31;;;;;;;;;;;;;;;17.92;100.00;99610.59;5011525;28;874;-64
2022/09/10 02:48:58;;;;;;;;;;;;;;;17.86;100.00;99613.22;5014267;28;850;-64
2022/09/10 02:51:25;;;;;;;;;;;;;;;17.79;100.00;99607.84;4997600;28;1396;-64
2022/09/10 02:53:52;;;;;;;;;;;;;;;17.72;100.00;99608.91;5015184;28;882;-63
2022/09/10 02:56:19;;;;;;;;;;;;;;;17.64;100.00;99607.63;5015262;28;818;-64
2022/09/10 02:58:47;;;;;;;;;;;;;;;17.62;100.00;99612.09;4997486;28;1292;-64
2022/09/10 03:01:14;;;;;;;;;;;;;;;17.60;100.00;99608.97;4997426;28;1404;-64
2022/09/10 03:03:41;;;;;;;;;;;;;;;17.58;100.00;99615.03;4997342;28;1898;-64
2022/09/10 03:06:09;;;;;;;;;;;;;;;17.59;100.00;99607.44;4997351;28;1340;-63
2022/09/10 03:08:36;;;;;;;;;;;;;;;17.60;100.00;99608.97;5014893;28;890;-64
2022/09/10 03:11:03;;;;;;;;;;;;;;;17.64;100.00;99607.63;5015034;28;987;-63
2022/09/10 03:13:30;;;;;;;;;;;;;;;17.71;100.00;99612.94;4979857;28;1383;-63
2022/09/10 03:15:57;;;;;;;;;;;;;;;17.77;100.00;99610.31;4995126;28;819;-63
2022/09/10 03:18:26;;;;;;;;;;;;;;;17.77;100.00;99615.91;4977970;28;1267;-63
2022/09/10 03:20:53;;;;;;;;;;;;;;;17.73;100.00;99615.28;4977388;28;1345;-63
2022/09/10 03:23:20;;;;;;;;;;;;;;;17.72;100.00;99622.88;4994879;28;1914;-64
2022/09/10 03:25:47;;;;;;;;;;;;;;;17.72;100.00;99620.09;4995036;28;839;-63
2022/09/10 03:28:15;;;;;;;;;;;;;;;17.73;100.00;99629.25;4994816;28;886;-63
2022/09/10 03:30:42;;;;;;;;;;;;;;;17.77;100.00;99618.72;4995025;28;902;-63
2022/09/10 03:33:10;;;;;;;;;;;;;;;17.80;100.00;99620.63;4994894;28;858;-64
2022/09/10 03:35:37;;;;;;;;;;;;;;;17.84;100.00;99621.28;4994704;28;1220;-64
2022/09/10 03:38:04;;;;;;;;;;;;;;;17.87;100.00;99623.16;4994606;28;870;-64
2022/09/10 03:40:31;;;;;;;;;;;;;;;17.86;100.00;99616.03;4994742;28;886;-63
2022/09/10 03:42:59;;;;;;;;;;;;;;;17.83;100.00;99618.94;4994507;28;1891;-63
2022/09/10 03:45:27;;;;;;;;;;;;;;;17.83;100.00;99618.94;4994825;28;842;-63
2022/09/10 03:47:54;;;;;;;;;;;;;;;17.83;100.00;99619.72;4977054;28;1301;-63
2022/09/10 03:50:21;;;;;;;;;;;;;;;17.85;100.00;99627.66;4994588;28;913;-63
2022/09/10 03:52:47;;;;;;;;;;;;;;;17.84;100.00;99620.53;4994479;28;897;-63
2022/09/10 03:55:15;;;;;;;;;;;;;;;17.86;100.00;99620.81;4994514;28;866;-63
2022/09/10 03:57:42;;;;;;;;;;;;;;;17.92;100.00;99627.38;4994500;28;897;-63
2022/09/10 04:00:13;;;;;;;;;;;;;;;17.98;100.00;99625.53;4993741;28;830;-63
2022/09/10 04:02:40;;;;;;;;;;;;;;;18.05;100.00;99628.09;4995212;28;834;-64
2022/09/10 04:05:07;;;;;;;;;;;;;;;18.10;100.00;99629.50;4994625;28;1899;-64
2022/09/10 04:07:35;;;;;;;;;;;;;;;18.16;100.00;99638.88;4994905;28;755;-64
2022/09/10 04:10:02;;;;;;;;;;;;;;;18.21;100.00;99638.25;4994586;28;937;-64
2022/09/10 04:12:29;;;;;;;;;;;;;;;18.27;100.00;99641.25;4994476;28;1441;-64
2022/09/10 04:14:56;;;;;;;;;;;;;;;18.33;100.00;99637.38;4976946;28;1498;-64
2022/09/10 04:17:24;;;;;;;;;;;;;;;18.42;100.00;99636.63;4994386;28;898;-64
2022/09/10 04:19:51;;;;;;;;;;;;;;;18.50;100.00;99637.91;4994240;28;898;-63
2022/09/10 04:22:17;;;;;;;;;;;;;;;18.62;100.00;99643.84;4976711;28;1325;-64
2022/09/10 04:24:44;;;;;;;;;;;;;;;18.74;100.00;99635.34;4994141;28;1918;-64
2022/09/10 04:27:10;;;;;;;;;;;;;;;18.87;100.00;99631.66;4994101;28;808;-63
2022/09/10 04:29:37;;;;;;;;;;;;;;;19.02;100.00;99634.66;4994190;28;886;-63
2022/09/10 04:32:06;;;;;;;;;;;;;;;19.16;100.00;99628.41;4994421;28;740;-63
2022/09/10 04:34:32;;;;;;;;;;;;;;;19.32;100.00;99633.72;4994000;28;823;-63
2022/09/10 04:37:00;;;;;;;;;;;;;;;19.48;100.00;99623.44;4993817;28;878;-63
2022/09/10 04:39:26;;;;;;;;;;;;;;;19.64;100.00;99623.13;4993964;28;834;-63
2022/09/10 04:41:53;;;;;;;;;;;;;;;19.80;100.00;99624.84;4976360;28;1165;-63
2022/09/10 04:44:19;;;;;;;;;;;;;;;19.94;100.00;99617.78;4993905;28;1882;-63
2022/09/10 04:46:46;;;;;;;;;;;;;;;20.08;100.00;99617.13;4993955;28;870;-63
2022/09/10 04:49:13;;;;;;;;;;;;;;;20.29;100.00;99614.53;4994114;28;834;-63
2022/09/10 04:51:39;;;;;;;;;;;;;;;20.55;100.00;99615.69;4993386;28;819;-63
2022/09/10 04:54:06;;;;;;;;;;;;;;;20.71;100.00;99617.34;4993860;28;818;-63
2022/09/10 04:56:33;;;;;;;;;;;;;;;20.70;100.00;99620.63;4993370;28;878;-63
2022/09/10 04:59:00;;;;;;;;;;;;;;;20.62;100.00;99625.81;4993214;28;847;-63
2022/09/10 05:01:27;;;;;;;;;;;;;;;20.51;100.00;99623.50;4993319;28;819;-63
2022/09/10 05:03:53;;;;;;;;;;;;;;;20.40;100.00;99617.63;4993082;28;1949;-63
2022/09/10 05:06:22;;;;;;;;;;;;;;;20.30;100.00;99613.31;4992981;28;1129;-63
2022/09/10 05:08:48;;;;;;;;;;;;;;;20.21;100.00;99616.94;4993124;28;799;-63
2022/09/10 05:11:18;;;;;;;;;;;;;;;20.13;100.00;99619.28;4992412;28;1041;-63
2022/09/10 05:13:45;;;;;;;;;;;;;;;20.07;100.00;99614.78;5012122;28;1265;-63
2022/09/10 05:16:12;;;;;;;;;;;;;;;20.12;100.00;99620.56;5012876;28;875;-63
2022/09/10 05:18:39;;;;;;;;;;;;;;;20.26;100.00;99604.28;5012788;28;827;-63
2022/09/10 05:21:04;;;;;;;;;;;;;;;20.69;100.00;99631.06;5012719;28;822;-63
2022/09/10 05:23:31;;;;;;;;;;;;;;;20.99;100.00;99637.63;5013054;28;1914;-63
2022/09/10 05:25:58;;;;;;;;;;;;;;;21.25;100.00;99639.13;5012410;28;1267;-63
2022/09/10 05:28:24;;;;;;;;;;;;;;;21.48;100.00;99618.66;5013012;28;764;-63
2022/09/10 05:30:51;;;;;;;;;;;;;;;21.68;100.00;99605.97;5012286;28;823;-63
2022/09/10 05:33:17;;;;;;;;;;;;;;;21.88;100.00;99610.94;5012297;28;811;-63
2022/09/10 05:35:44;;;;;;;;;;;;;;;22.06;100.00;99613.53;5012074;28;831;-63
2022/09/10 05:38:10;;;;;;;;;;;;;;;22.31;100.00;99625.47;5012214;28;1181;-63
2022/09/10 05:40:37;;;;;;;;;;;;;;;22.44;100.00;99625.94;5012183;28;914;-63
2022/09/10 05:43:04;;;;;;;;;;;;;;;22.60;100.00;99628.22;5012059;28;1947;-63
2022/09/10 05:45:32;;;;;;;;;;;;;;;22.77;99.85;99625.66;5012097;28;886;-63
2022/09/10 05:47:59;;;;;;;;;;;;;;;23.03;98.03;99637.03;5012378;28;890;-63
2022/09/10 05:50:25;;;;;;;;;;;;;;;23.20;95.35;99631.59;5012071;28;810;-63
2022/09/10 05:52:52;;;;;;;;;;;;;;;23.54;93.59;99632.00;5012019;28;849;-63
2022/09/10 05:55:18;;;;;;;;;;;;;;;23.92;90.94;99634.94;5012063;28;846;-63
2022/09/10 05:57:45;;;;;;;;;;;;;;;24.19;88.85;99628.00;5012096;28;779;-63
2022/09/10 06:00:11;;;;;;;;;;;;;;;24.50;86.18;99641.34;5011994;28;796;-63
2022/09/10 06:02:38;;;;;;;;;;;;;;;24.71;82.80;99638.38;5012145;28;862;-63
2022/09/10 06:05:05;;;;;;;;;;;;;;;24.92;79.30;99624.88;5011795;28;1951;-63
2022/09/10 06:07:31;;;;;;;;;;;;;;;24.98;77.89;99620.03;5011848;28;928;-63
2022/09/10 06:09:58;;;;;;;;;;;;;;;24.68;76.83;99620.38;5011797;28;918;-62
2022/09/10 06:12:25;;;;;;;;;;;;;;;24.52;77.31;99621.84;5011703;28;1356;-63
2022/09/10 06:14:52;;;;;;;;;;;;;;;24.44;77.06;99612.25;5011845;28;873;-62
2022/09/10 06:17:18;;;;;;;;;;;;;;;24.22;76.19;99619.31;5011830;28;811;-62
2022/09/10 06:19:45;;;;;;;;;;;;;;;24.11;76.30;99613.56;5011741;28;877;-63
2022/09/10 06:22:11;;;;;;;;;;;;;;;24.10;76.02;99611.25;5013410;28;834;-63
2022/09/10 06:24:38;;;;;;;;;;;;;;;24.22;74.78;99607.25;5015672;28;1914;-62
2022/09/10 06:27:05;;;;;;;;;;;;;;;24.40;74.29;99603.25;5016023;28;819;-63
2022/09/10 06:29:37;;;;;;;;;;;;;;;24.78;72.08;99601.97;5015928;28;863;-62
2022/09/10 06:32:04;;;;;;;;;;;;;;;24.99;69.60;99613.09;5015663;28;866;-62
2022/09/10 06:34:31;;;;;;;;;;;;;;;25.28;66.18;99609.13;5015481;28;834;-63
2022/09/10 06:36:57;;;;;;;;;;;;;;;25.73;63.42;99608.44;5015505;28;819;-62
2022/09/10 06:39:23;;;;;;;;;;;;;;;26.53;60.02;99612.84;5015632;28;873;-62
2022/09/10 06:41:52;;;;;;;;;;;;;;;27.42;56.46;99602.50;4997836;28;1394;-63
2022/09/10 06:44:21;;;;;;;;;;;;;;;27.94;53.60;99612.22;5015234;28;1882;-62
2022/09/10 06:46:47;;;;;;;;;;;;;;;28.02;53.66;99613.97;4997703;28;1190;-62
2022/09/10 06:49:14;;;;;;;;;;;;;;;28.24;52.18;99612.22;5015316;28;894;-62
2022/09/10 06:51:41;;;;;;;;;;;;;;;28.52;51.92;99620.50;5015205;28;858;-62
2022/09/10 06:54:08;;;;;;;;;;;;;;;29.00;51.26;99616.09;5015192;28;863;-62
2022/09/10 06:56:34;;;;;;;;;;;;;;;29.35;48.67;99627.84;5015169;28;866;-62
2022/09/10 06:59:01;;;;;;;;;;;;;;;29.49;47.96;99629.47;4997707;28;890;-63
2022/09/10 07:01:28;;;;;;;;;;;;;;;29.69;47.47;99622.44;5015019;28;819;-62
2022/09/10 07:03:56;;;;;;;;;;;;;;;29.87;47.21;99627.38;5014753;28;1890;-62
2022/09/10 07:06:23;;;;;;;;;;;;;;;30.32;46.68;99632.34;5014913;28;867;-62
2022/09/10 07:08:53;;;;;;;;;;;;;;;30.50;45.53;99629.97;5014950;28;846;-62
2022/09/10 07:11:20;;;;;;;;;;;;;;;30.77;44.52;99625.06;5015249;28;923;-62
2022/09/10 07:13:49;;;;;;;;;;;;;;;30.65;44.72;99624.50;5014876;28;1308;-62
2022/09/10 07:16:19;;;;;;;;;;;;;;;30.29;43.34;99633.44;5014941;28;815;-63
2022/09/10 07:18:50;;;;;;;;;;;;;;;30.27;43.86;99626.72;5014967;28;791;-62
2022/09/10 07:21:17;;;;;;;;;;;;;;;30.35;43.05;99635.44;5015033;28;823;-62
2022/09/10 07:23:47;;;;;;;;;;;;;;;30.15;43.73;99631.84;5014487;28;1902;-62
2022/09/10 07:26:15;;;;;;;;;;;;;;;29.93;43.70;99630.13;5014604;28;838;-62
2022/09/10 07:28:42;;;;;;;;;;;;;;;29.46;43.72;99624.84;5014636;28;870;-62
2022/09/10 07:31:13;;;;;;;;;;;;;;;29.07;44.06;99626.88;5014489;28;827;-62
2022/09/10 07:33:41;;;;;;;;;;;;;;;28.98;43.92;99624.41;5013527;28;897;-62
2022/09/10 07:36:10;;;;;;;;;;;;;;;29.24;42.78;99632.38;5014458;28;803;-61
2022/09/10 07:38:50;;;;;;;;;;;;;;;29.46;41.70;99617.06;5014594;28;886;-62
2022/09/10 07:41:17;;;;;;;;;;;;;;;29.73;40.70;99610.78;5014411;28;861;-62
2022/09/10 07:43:44;;;;;;;;;;;;;;;29.93;40.31;99610.19;4996657;28;1886;-62
2022/09/10 07:46:12;;;;;;;;;;;;;;;30.66;39.58;99608.13;5014282;28;851;-62
2022/09/10 07:48:40;;;;;;;;;;;;;;;30.96;37.51;99616.41;5014227;28;870;-61
2022/09/10 07:51:07;;;;;;;;;;;;;;;31.12;37.12;99603.09;5014247;28;810;-62
2022/09/10 07:53:34;;;;;;;;;;;;;;;31.49;37.34;99607.78;5014069;28;890;-62
2022/09/10 07:56:04;;;;;;;;;;;;;;;31.90;36.14;99597.69;5014211;28;933;-62
2022/09/10 07:58:32;;;;;;;;;;;;;;;31.78;35.83;99599.28;5013879;28;1726;-62
2022/09/10 08:00:58;;;;;;;;;;;;;;;31.96;36.08;99608.97;5014014;28;830;-60
2022/09/10 08:03:26;;;;;;;;;;;;;;;32.02;35.47;99606.03;5013746;28;1951;-60
2022/09/10 08:05:53;;;;;;;;;;;;;;;31.98;34.78;99617.00;5013886;28;834;-61
2022/09/10 08:08:19;;;;;;;;;;;;;;;32.10;34.99;99609.72;5013815;28;807;-60
2022/09/10 08:10:47;;;;;;;;;;;;;;;32.16;35.07;99607.47;5013802;28;1074;-60
2022/09/10 08:13:14;;;;;;;;;;;;;;;32.09;35.12;99608.16;5013571;28;1329;-61
2022/09/10 08:15:42;;;;;;;;;;;;;;;32.44;35.58;99605.97;5013625;28;838;-61
2022/09/10 08:18:10;;;;;;;;;;;;;;;32.60;34.59;99606.88;5013702;28;885;-61
2022/09/10 08:20:38;;;;;;;;;;;;;;;32.64;35.08;99605.19;5013961;28;886;-61
2022/09/10 08:23:06;;;;;;;;;;;;;;;32.82;34.32;99597.66;4996141;28;1938;-61
2022/09/10 08:25:32;;;;;;;;;;;;;;;33.01;34.22;99597.38;5013876;28;882;-61
2022/09/10 08:27:59;;;;;;;;;;;;;;;33.20;33.68;99588.50;5013852;28;925;-61
2022/09/10 08:30:26;;;;;;;;;;;;;;;33.25;33.46;99584.72;5013765;28;881;-61
2022/09/10 08:32:53;;;;;;;;;;;;;;;32.63;34.39;99583.63;5013483;28;823;-61
2022/09/10 08:35:19;;;;;;;;;;;;;;;32.54;34.33;99581.28;5013523;28;842;-61
2022/09/10 08:50:01;;;;;;;;;;;;;;;33.32;32.96;99586.06;5013409;28;652;-61
2022/09/10 08:55:40;;;;;;;;;;;;;;;32.80;33.25;99556.66;5013092;28;672;-61
2022/09/10 08:58:17;;;;;;;;;;;;;;;32.55;34.15;99562.78;5013223;28;898;-61
2022/09/10 09:00:44;;;;;;;;;;;;;;;32.67;33.79;99563.25;5012839;28;803;-61
2022/09/10 09:03:26;;;;;;;;;;;;;;;32.75;33.49;99556.25;5012946;28;1910;-60
2022/09/10 09:08:57;;;;;;;;;;;;;;;32.44;33.40;99543.06;5013022;28;629;-60
2022/09/10 09:11:44;;;;;;;;;;;;;;;32.59;33.23;99528.88;5012508;28;1350;-60
2022/09/10 09:14:10;;;;;;;;;;;;;;;32.73;32.40;99516.00;5012837;28;803;-60
2022/09/10 09:16:50;;;;;;;;;;;;;;;32.63;33.28;99531.38;5013004;28;1366;-60
2022/09/10 09:19:28;;;;;;;;;;;;;;;32.52;32.96;99516.03;5012519;28;815;-60
2022/09/10 09:21:55;;;;;;;;;;;;;;;32.26;33.45;99510.53;5012454;28;894;-60
2022/09/10 09:24:27;;;;;;;;;;;;;;;32.35;33.01;99510.78;5012406;28;1973;-62
2022/09/10 09:26:56;;;;;;;;;;;;;;;32.26;33.36;99507.66;5012403;28;846;-62
2022/09/10 09:29:35;;;;;;;;;;;;;;;32.06;33.57;99509.25;5012451;28;858;-62
2022/09/10 09:32:16;;;;;;;;;;;;;;;31.92;34.11;99505.69;5012735;28;799;-62
2022/09/10 09:34:48;;;;;;;;;;;;;;;32.01;33.65;99501.63;5012321;28;818;-61
2022/09/10 09:37:22;;;;;;;;;;;;;;;32.04;33.78;99501.25;5012328;28;826;-59
2022/09/10 09:40:13;;;;;;;;;;;;;;;31.89;34.60;99501.09;5012133;28;947;-59
2022/09/10 09:54:53;;;;;;;;;;;;;;;32.61;33.55;99479.69;5012339;28;660;-60
2022/09/10 09:57:20;;;;;;;;;;;;;;;32.71;33.69;99470.00;5011495;28;918;-60
2022/09/10 09:59:48;;;;;;;;;;;;;;;32.85;34.06;99475.59;5011883;28;881;-59
2022/09/10 10:02:22;;;;;;;;;;;;;;;32.85;33.65;99464.13;5011972;28;868;-60
2022/09/10 10:05:02;;;;;;;;;;;;;;;32.78;34.50;99467.75;5011815;28;1890;-60
2022/09/10 10:07:36;;;;;;;;;;;;;;;32.43;34.38;99459.34;5012058;28;877;-61
2022/09/10 10:10:03;;;;;;;;;;;;;;;32.32;34.85;99463.28;5012008;28;807;-60
2022/09/10 10:12:30;;;;;;;;;;;;;;;32.59;35.19;99468.81;5011829;28;1494;-60
2022/09/10 10:14:57;;;;;;;;;;;;;;;32.19;35.15;99454.84;5011835;28;823;-61
2022/09/10 10:17:29;;;;;;;;;;;;;;;31.46;36.56;99459.63;5011749;28;874;-61
2022/09/10 10:20:07;;;;;;;;;;;;;;;30.59;37.94;99452.72;4994053;28;1402;-62
2022/09/10 10:22:35;;;;;;;;;;;;;;;30.48;37.99;99461.53;5011726;28;880;-63
2022/09/10 10:28:13;;;;;;;;;;;;;;;31.66;36.92;99453.09;5011701;28;625;-61
2022/09/10 10:30:40;;;;;;;;;;;;;;;31.69;36.43;99457.72;5011582;28;784;-61
2022/09/10 10:33:17;;;;;;;;;;;;;;;31.53;37.04;99453.19;5011705;28;807;-61
2022/09/10 10:35:50;;;;;;;;;;;;;;;31.84;36.91;99451.34;5012050;28;846;-61
2022/09/10 10:38:17;;;;;;;;;;;;;;;32.26;36.13;99445.56;5011783;28;939;-61
2022/09/10 10:40:55;;;;;;;;;;;;;;;32.59;35.71;99442.31;5011594;28;910;-61
2022/09/10 10:43:33;;;;;;;;;;;;;;;32.72;35.57;99451.50;5011422;28;1941;-60
2022/09/10 10:46:00;;;;;;;;;;;;;;;32.09;36.14;99439.53;5011573;28;847;-61
2022/09/10 10:48:34;;;;;;;;;;;;;;;32.56;36.42;99444.19;5011554;28;862;-60
2022/09/10 10:51:14;;;;;;;;;;;;;;;32.92;35.49;99446.22;4994103;28;859;-60
2022/09/10 10:53:52;;;;;;;;;;;;;;;33.40;34.79;99435.06;5011443;28;787;-60
2022/09/10 10:56:24;;;;;;;;;;;;;;;33.90;33.99;99434.69;5011372;28;938;-60
2022/09/10 10:58:52;;;;;;;;;;;;;;;33.64;33.94;99430.88;5011311;28;1014;-61
2022/09/10 11:01:23;;;;;;;;;;;;;;;33.38;34.68;99423.41;5011285;28;882;-60
2022/09/10 11:04:00;;;;;;;;;;;;;;;33.17;34.87;99417.09;5011231;28;1882;-61
2022/09/10 11:06:37;;;;;;;;;;;;;;;33.07;35.23;99414.78;5011290;28;1312;-61
2022/09/10 11:09:13;;;;;;;;;;;;;;;33.09;35.40;99423.56;4994972;28;886;-62
2022/09/10 11:11:52;;;;;;;;;;;;;;;33.65;34.44;99417.31;5014954;28;1178;-61
2022/09/10 11:14:39;;;;;;;;;;;;;;;34.59;33.21;99411.56;5014919;28;843;-61
2022/09/10 11:17:12;;;;;;;;;;;;;;;34.41;32.91;99413.53;5015029;28;881;-61
2022/09/10 11:22:46;;;;;;;;;;;;;;;33.49;33.66;99407.94;5014817;28;661;-61
2022/09/10 11:25:40;;;;;;;;;;;;;;;33.32;34.20;99402.78;5014654;28;1914;-62
2022/09/10 11:28:19;;;;;;;;;;;;;;;33.04;34.74;99398.72;5014897;28;857;-62
2022/09/10 11:30:49;;;;;;;;;;;;;;;32.81;35.00;99397.94;5014557;28;795;-63
2022/09/10 11:33:22;;;;;;;;;;;;;;;32.49;35.79;99387.69;5014833;28;795;-62
2022/09/10 11:36:02;;;;;;;;;;;;;;;32.42;35.49;99379.84;5014522;28;870;-63
2022/09/10 11:38:51;;;;;;;;;;;;;;;32.38;35.96;99385.94;5014397;28;910;-63
2022/09/10 11:41:21;;;;;;;;;;;;;;;32.50;36.31;99380.66;5013941;28;1648;-63
2022/09/10 11:44:11;;;;;;;;;;;;;;;32.67;35.55;99366.63;5014250;28;1955;-63
2022/09/10 11:46:40;;;;;;;;;;;;;;;32.80;34.98;99359.22;5014251;28;1182;-64
2022/09/10 11:49:11;;;;;;;;;;;;;;;32.99;35.06;99367.41;5014537;28;897;-64
2022/09/10 11:51:39;;;;;;;;;;;;;;;33.11;34.69;99357.91;5014224;28;862;-63
2022/09/10 11:54:12;;;;;;;;;;;;;;;33.27;34.43;99349.34;5014207;28;811;-64
2022/09/10 11:56:44;;;;;;;;;;;;;;;33.55;34.31;99352.00;5014198;28;802;-64
2022/09/10 11:59:14;;;;;;;;;;;;;;;33.92;33.60;99349.63;5013796;28;926;-63
2022/09/10 12:01:55;;;;;;;;;;;;;;;33.97;33.26;99348.69;5014075;28;831;-64
2022/09/10 12:04:37;;;;;;;;;;;;;;;33.84;33.51;99342.41;5014011;28;1882;-63
2022/09/10 12:07:28;;;;;;;;;;;;;;;33.64;33.83;99344.19;5014400;28;863;-63
2022/09/10 12:09:54;;;;;;;;;;;;;;;33.56;34.19;99339.22;5013835;28;870;-63
2022/09/10 12:12:24;;;;;;;;;;;;;;;33.13;34.71;99337.31;5013967;28;1179;-63
2022/09/10 12:14:51;;;;;;;;;;;;;;;32.38;35.15;99334.47;5013733;28;914;-63
2022/09/10 12:17:22;;;;;;;;;;;;;;;31.67;36.43;99328.97;5013750;28;906;-62
2022/09/10 12:19:52;;;;;;;;;;;;;;;31.20;37.35;99320.63;5013282;28;799;-63
2022/09/10 12:22:23;;;;;;;;;;;;;;;31.20;37.60;99320.63;5013677;28;895;-63
2022/09/10 12:24:55;;;;;;;;;;;;;;;30.95;38.34;99317.38;5013505;28;1914;-63
2022/09/10 12:27:21;;;;;;;;;;;;;;;31.17;37.97;99316.03;5014022;28;866;-63
2022/09/10 12:29:48;;;;;;;;;;;;;;;31.22;37.79;99318.75;5013386;28;810;-63
2022/09/10 12:32:24;;;;;;;;;;;;;;;31.09;38.20;99311.03;5013351;28;830;-63
2022/09/10 12:35:10;;;;;;;;;;;;;;;31.05;38.81;99304.16;5013432;28;799;-63
2022/09/10 12:37:36;;;;;;;;;;;;;;;31.19;38.43;99304.81;5013293;28;910;-63
2022/09/10 12:40:24;;;;;;;;;;;;;;;31.78;37.88;99299.31;5013286;28;847;-63
2022/09/10 12:42:56;;;;;;;;;;;;;;;31.93;37.01;99296.53;5006230;28;1119;-63
2022/09/10 12:45:42;;;;;;;;;;;;;;;31.80;37.57;99296.66;5013119;28;1948;-64
2022/09/10 12:48:11;;;;;;;;;;;;;;;31.46;38.24;99283.34;5013144;28;873;-63
2022/09/10 12:50:57;;;;;;;;;;;;;;;31.15;38.66;99276.63;5013123;28;823;-63
2022/09/10 12:53:48;;;;;;;;;;;;;;;30.75;39.95;99274.00;5012728;28;1126;-63
2022/09/10 12:56:41;;;;;;;;;;;;;;;30.73;40.29;99268.84;5012944;28;807;-63
2022/09/10 12:59:14;;;;;;;;;;;;;;;30.76;40.04;99271.91;5010990;28;1626;-63
2022/09/10 13:01:45;;;;;;;;;;;;;;;30.67;40.54;99267.47;5013114;28;902;-63
2022/09/10 13:04:24;;;;;;;;;;;;;;;30.46;40.29;99271.03;5012754;28;1867;-62
2022/09/10 13:06:54;;;;;;;;;;;;;;;30.20;40.85;99271.88;5012857;28;803;-63
2022/09/10 13:09:24;;;;;;;;;;;;;;;30.11;40.85;99266.66;5012760;28;802;-63
2022/09/10 13:11:52;;;;;;;;;;;;;;;30.19;41.20;99267.50;5012809;28;1247;-64
2022/09/10 13:14:25;;;;;;;;;;;;;;;30.26;41.24;99260.38;5012889;28;902;-63
2022/09/10 13:16:51;;;;;;;;;;;;;;;30.31;40.83;99251.69;5012662;28;803;-63
2022/09/10 13:19:18;;;;;;;;;;;;;;;30.22;41.21;99251.41;5012664;28;834;-63
2022/09/10 13:21:46;;;;;;;;;;;;;;;30.16;42.00;99250.75;5012586;28;830;-63
2022/09/10 13:24:32;;;;;;;;;;;;;;;30.03;42.71;99245.88;5012469;28;1914;-63
2022/09/10 13:27:05;;;;;;;;;;;;;;;29.95;42.83;99233.59;5012419;28;917;-64
2022/09/10 13:29:37;;;;;;;;;;;;;;;29.88;43.01;99230.13;5012347;28;795;-64
2022/09/10 13:44:15;;;;;;;;;;;;;;;29.71;44.00;99209.78;5012447;28;1886;-62
2022/09/10 13:46:44;;;;;;;;;;;;;;;29.78;44.08;99205.50;5012106;28;822;-61
2022/09/10 13:49:15;;;;;;;;;;;;;;;29.84;43.98;99218.28;5012191;28;850;-62
2022/09/10 13:51:53;;;;;;;;;;;;;;;29.89;43.86;99217.41;5012338;28;843;-62
2022/09/10 13:54:30;;;;;;;;;;;;;;;29.95;43.62;99222.22;5011868;28;954;-61
2022/09/10 14:09:08;;;;;;;;;;;;;;;29.30;45.37;99211.13;5012125;28;688;-61
2022/09/10 14:11:39;;;;;;;;;;;;;;;29.13;46.32;99208.59;4994068;28;1406;-62
2022/09/10 14:14:25;;;;;;;;;;;;;;;29.06;46.60;99212.84;5012029;28;827;-61
2022/09/10 14:16:54;;;;;;;;;;;;;;;28.71;47.54;99213.97;5011791;28;843;-61
2022/09/10 14:19:24;;;;;;;;;;;;;;;28.36;48.85;99206.50;5011698;28;846;-61
2022/09/10 14:21:52;;;;;;;;;;;;;;;28.09;49.59;99207.19;5011957;28;850;-61
2022/09/10 14:24:43;;;;;;;;;;;;;;;27.90;49.69;99198.66;5011696;28;1980;-60
2022/09/10 14:27:15;;;;;;;;;;;;;;;27.72;49.94;99201.47;5011600;28;803;-61
2022/09/10 14:29:41;;;;;;;;;;;;;;;27.68;50.17;99207.47;5011674;28;827;-61